Duck Valley, Nevada
Current Conditions -  °F | °C
As of 5:58 PM on Wednesday 22 Oct 2014 (Local Time) from KMUO Reporting Station
Broken Clouds Broken Clouds  
Wind Chill: 14°   Ceiling: 11000
Heat Index: 14°   Visibility: 10mi
Dew Point:   Wind: 14mph
Humidity: 43%   Direction: 110°ESE
Pressure: 30.04"   Gusts: NA
Location:  41.9458°N, 116.094°W
Report Text: KMUO 230058Z 11012KT 10SM BKN110 14/02 A3004 RMK AO2A SLP174 T01420017
Loading
Personal Weather Stations






























Interactive Weather Map
Tropical Storm Tracking
New forecast layout! Learn more

10-Day Weather Forecast

Advertisements
Track Severe Weather on mobile